sensor_id;sensor_type;location;lat;lon;timestamp;P1;durP1;ratioP1;P2;durP2;ratioP2
34471;SDS011;20710;49.976;19.836;2023-07-31T00:02:25;4.50;;;3.00;;
34471;SDS011;20710;49.976;19.836;2023-07-31T00:08:26;5.70;;;3.30;;
34471;SDS011;20710;49.976;19.836;2023-07-31T00:14:28;7.80;;;3.60;;
34471;SDS011;20710;49.976;19.836;2023-07-31T00:20:32;5.40;;;3.00;;
34471;SDS011;20710;49.976;19.836;2023-07-31T00:26:34;5.80;;;3.80;;
34471;SDS011;20710;49.976;19.836;2023-07-31T00:32:36;4.40;;;3.10;;
34471;SDS011;20710;49.976;19.836;2023-07-31T00:39:00;5.60;;;3.10;;
34471;SDS011;20710;49.976;19.836;2023-07-31T00:45:03;5.60;;;3.20;;
34471;SDS011;20710;49.976;19.836;2023-07-31T00:51:07;5.50;;;3.10;;
34471;SDS011;20710;49.976;19.836;2023-07-31T00:57:12;5.90;;;2.80;;
34471;SDS011;20710;49.976;19.836;2023-07-31T01:03:13;5.70;;;3.10;;
34471;SDS011;20710;49.976;19.836;2023-07-31T01:15:54;6.40;;;3.00;;
34471;SDS011;20710;49.976;19.836;2023-07-31T01:35:10;4.50;;;2.40;;
34471;SDS011;20710;49.976;19.836;2023-07-31T01:41:12;5.60;;;2.60;;
34471;SDS011;20710;49.976;19.836;2023-07-31T01:48:15;5.30;;;3.40;;
34471;SDS011;20710;49.976;19.836;2023-07-31T01:54:38;4.20;;;2.80;;
34471;SDS011;20710;49.976;19.836;2023-07-31T02:01:38;5.90;;;2.40;;
34471;SDS011;20710;49.976;19.836;2023-07-31T02:08:21;4.30;;;2.40;;
34471;SDS011;20710;49.976;19.836;2023-07-31T02:14:57;2.80;;;1.80;;
34471;SDS011;20710;49.976;19.836;2023-07-31T02:21:00;3.90;;;2.20;;
34471;SDS011;20710;49.976;19.836;2023-07-31T02:27:22;5.20;;;2.20;;
34471;SDS011;20710;49.976;19.836;2023-07-31T02:34:45;4.80;;;2.70;;
34471;SDS011;20710;49.976;19.836;2023-07-31T02:41:08;3.80;;;2.10;;
34471;SDS011;20710;49.976;19.836;2023-07-31T02:47:30;3.60;;;2.20;;
34471;SDS011;20710;49.976;19.836;2023-07-31T02:53:32;4.10;;;2.40;;
34471;SDS011;20710;49.976;19.836;2023-07-31T02:59:34;4.00;;;2.30;;
34471;SDS011;20710;49.976;19.836;2023-07-31T03:05:35;3.60;;;2.20;;
34471;SDS011;20710;49.976;19.836;2023-07-31T03:12:34;4.10;;;2.20;;
34471;SDS011;20710;49.976;19.836;2023-07-31T03:18:35;2.70;;;1.90;;
34471;SDS011;20710;49.976;19.836;2023-07-31T03:24:56;4.20;;;2.40;;
34471;SDS011;20710;49.976;19.836;2023-07-31T03:30:57;3.90;;;2.30;;
34471;SDS011;20710;49.976;19.836;2023-07-31T03:44:51;5.00;;;2.30;;
34471;SDS011;20710;49.976;19.836;2023-07-31T03:50:55;4.40;;;2.70;;
34471;SDS011;20710;49.976;19.836;2023-07-31T03:57:19;5.60;;;2.40;;
34471;SDS011;20710;49.976;19.836;2023-07-31T04:03:20;7.00;;;2.50;;
34471;SDS011;20710;49.976;19.836;2023-07-31T04:10:03;6.50;;;2.30;;
34471;SDS011;20710;49.976;19.836;2023-07-31T04:16:04;3.40;;;2.10;;
34471;SDS011;20710;49.976;19.836;2023-07-31T04:22:47;5.40;;;2.60;;
34471;SDS011;20710;49.976;19.836;2023-07-31T04:28:51;4.20;;;2.40;;
34471;SDS011;20710;49.976;19.836;2023-07-31T04:34:56;3.60;;;2.50;;
34471;SDS011;20710;49.976;19.836;2023-07-31T04:41:00;4.90;;;2.70;;
34471;SDS011;20710;49.976;19.836;2023-07-31T04:47:22;5.70;;;2.20;;
34471;SDS011;20710;49.976;19.836;2023-07-31T04:53:24;3.90;;;2.40;;
34471;SDS011;20710;49.976;19.836;2023-07-31T04:59:26;5.10;;;2.50;;
34471;SDS011;20710;49.976;19.836;2023-07-31T05:05:57;4.90;;;3.10;;
34471;SDS011;20710;49.976;19.836;2023-07-31T05:11:59;5.90;;;3.10;;
34471;SDS011;20710;49.976;19.836;2023-07-31T05:18:21;5.80;;;2.50;;
34471;SDS011;20710;49.976;19.836;2023-07-31T05:24:25;3.90;;;2.70;;
34471;SDS011;20710;49.976;19.836;2023-07-31T05:30:26;6.20;;;2.60;;
34471;SDS011;20710;49.976;19.836;2023-07-31T05:36:28;4.20;;;2.80;;
34471;SDS011;20710;49.976;19.836;2023-07-31T05:42:51;6.40;;;2.90;;
34471;SDS011;20710;49.976;19.836;2023-07-31T05:48:54;3.80;;;3.50;;
34471;SDS011;20710;49.976;19.836;2023-07-31T05:54:57;3.30;;;3.00;;
34471;SDS011;20710;49.976;19.836;2023-07-31T06:00:59;3.80;;;3.10;;
34471;SDS011;20710;49.976;19.836;2023-07-31T06:07:41;3.90;;;3.00;;
34471;SDS011;20710;49.976;19.836;2023-07-31T06:14:03;6.50;;;3.30;;
34471;SDS011;20710;49.976;19.836;2023-07-31T06:20:06;5.70;;;3.20;;
34471;SDS011;20710;49.976;19.836;2023-07-31T06:26:08;6.70;;;3.10;;
34471;SDS011;20710;49.976;19.836;2023-07-31T06:32:10;5.00;;;3.10;;
34471;SDS011;20710;49.976;19.836;2023-07-31T06:38:32;5.60;;;3.40;;
34471;SDS011;20710;49.976;19.836;2023-07-31T06:44:33;6.10;;;3.80;;
34471;SDS011;20710;49.976;19.836;2023-07-31T06:50:56;5.70;;;3.20;;
34471;SDS011;20710;49.976;19.836;2023-07-31T06:56:59;4.00;;;2.90;;
34471;SDS011;20710;49.976;19.836;2023-07-31T07:03:21;5.40;;;3.20;;
34471;SDS011;20710;49.976;19.836;2023-07-31T07:09:53;4.30;;;2.70;;
34471;SDS011;20710;49.976;19.836;2023-07-31T07:16:20;3.90;;;2.90;;
34471;SDS011;20710;49.976;19.836;2023-07-31T07:23:02;4.10;;;2.20;;
34471;SDS011;20710;49.976;19.836;2023-07-31T07:29:06;6.00;;;3.00;;
34471;SDS011;20710;49.976;19.836;2023-07-31T07:35:09;6.70;;;4.10;;
34471;SDS011;20710;49.976;19.836;2023-07-31T07:41:12;3.20;;;2.60;;
34471;SDS011;20710;49.976;19.836;2023-07-31T07:47:14;5.70;;;2.70;;
34471;SDS011;20710;49.976;19.836;2023-07-31T07:53:51;4.40;;;2.10;;
34471;SDS011;20710;49.976;19.836;2023-07-31T07:59:55;7.00;;;2.90;;
34471;SDS011;20710;49.976;19.836;2023-07-31T08:05:58;5.60;;;2.50;;
34471;SDS011;20710;49.976;19.836;2023-07-31T08:12:00;4.40;;;2.60;;
34471;SDS011;20710;49.976;19.836;2023-07-31T08:18:09;7.90;;;3.20;;
34471;SDS011;20710;49.976;19.836;2023-07-31T08:24:12;3.90;;;2.50;;
34471;SDS011;20710;49.976;19.836;2023-07-31T08:30:34;5.20;;;2.60;;
34471;SDS011;20710;49.976;19.836;2023-07-31T08:37:15;3.40;;;2.50;;
34471;SDS011;20710;49.976;19.836;2023-07-31T08:43:16;3.60;;;2.00;;
34471;SDS011;20710;49.976;19.836;2023-07-31T08:49:27;4.90;;;2.50;;
34471;SDS011;20710;49.976;19.836;2023-07-31T08:56:38;4.10;;;2.50;;
34471;SDS011;20710;49.976;19.836;2023-07-31T09:02:45;7.00;;;2.30;;
34471;SDS011;20710;49.976;19.836;2023-07-31T09:09:05;5.00;;;2.50;;
34471;SDS011;20710;49.976;19.836;2023-07-31T09:15:07;4.80;;;2.30;;
34471;SDS011;20710;49.976;19.836;2023-07-31T09:21:12;5.60;;;2.60;;
34471;SDS011;20710;49.976;19.836;2023-07-31T09:27:35;4.70;;;2.10;;
34471;SDS011;20710;49.976;19.836;2023-07-31T09:33:55;3.00;;;1.60;;
34471;SDS011;20710;49.976;19.836;2023-07-31T09:39:58;3.10;;;1.50;;
34471;SDS011;20710;49.976;19.836;2023-07-31T09:46:21;4.10;;;1.90;;
34471;SDS011;20710;49.976;19.836;2023-07-31T09:52:25;3.70;;;1.90;;
34471;SDS011;20710;49.976;19.836;2023-07-31T09:58:46;4.50;;;2.10;;
34471;SDS011;20710;49.976;19.836;2023-07-31T10:05:52;2.70;;;1.50;;
34471;SDS011;20710;49.976;19.836;2023-07-31T10:12:02;4.20;;;1.50;;
34471;SDS011;20710;49.976;19.836;2023-07-31T10:18:48;2.30;;;1.40;;
34471;SDS011;20710;49.976;19.836;2023-07-31T10:24:54;3.40;;;1.60;;
34471;SDS011;20710;49.976;19.836;2023-07-31T10:31:57;3.60;;;1.60;;
34471;SDS011;20710;49.976;19.836;2023-07-31T10:38:11;4.60;;;1.60;;
34471;SDS011;20710;49.976;19.836;2023-07-31T10:44:13;4.90;;;1.40;;
34471;SDS011;20710;49.976;19.836;2023-07-31T10:50:21;6.20;;;1.20;;
34471;SDS011;20710;49.976;19.836;2023-07-31T10:56:26;6.40;;;1.30;;
34471;SDS011;20710;49.976;19.836;2023-07-31T11:02:29;4.80;;;1.20;;
34471;SDS011;20710;49.976;19.836;2023-07-31T11:08:38;2.00;;;1.30;;
34471;SDS011;20710;49.976;19.836;2023-07-31T11:14:53;3.90;;;1.30;;
34471;SDS011;20710;49.976;19.836;2023-07-31T11:21:43;6.80;;;1.90;;
34471;SDS011;20710;49.976;19.836;2023-07-31T11:27:45;2.40;;;1.40;;
34471;SDS011;20710;49.976;19.836;2023-07-31T11:33:47;1.90;;;1.20;;
34471;SDS011;20710;49.976;19.836;2023-07-31T11:40:01;5.20;;;1.30;;
34471;SDS011;20710;49.976;19.836;2023-07-31T11:46:03;3.70;;;1.20;;
34471;SDS011;20710;49.976;19.836;2023-07-31T11:52:25;2.30;;;1.30;;
34471;SDS011;20710;49.976;19.836;2023-07-31T11:58:30;3.70;;;1.40;;
34471;SDS011;20710;49.976;19.836;2023-07-31T12:04:41;4.90;;;1.50;;
34471;SDS011;20710;49.976;19.836;2023-07-31T12:11:20;2.30;;;1.40;;
34471;SDS011;20710;49.976;19.836;2023-07-31T12:17:26;3.60;;;1.80;;
34471;SDS011;20710;49.976;19.836;2023-07-31T12:24:10;3.70;;;1.40;;
34471;SDS011;20710;49.976;19.836;2023-07-31T12:30:28;2.00;;;1.30;;
34471;SDS011;20710;49.976;19.836;2023-07-31T12:36:30;6.10;;;1.40;;
34471;SDS011;20710;49.976;19.836;2023-07-31T12:42:40;3.90;;;1.20;;
34471;SDS011;20710;49.976;19.836;2023-07-31T12:49:04;4.60;;;1.90;;
34471;SDS011;20710;49.976;19.836;2023-07-31T13:01:54;3.70;;;1.90;;
34471;SDS011;20710;49.976;19.836;2023-07-31T13:07:56;5.60;;;1.80;;
34471;SDS011;20710;49.976;19.836;2023-07-31T13:13:57;3.40;;;1.70;;
34471;SDS011;20710;49.976;19.836;2023-07-31T13:20:19;2.50;;;1.40;;
34471;SDS011;20710;49.976;19.836;2023-07-31T13:26:21;2.80;;;1.40;;
34471;SDS011;20710;49.976;19.836;2023-07-31T13:32:22;4.20;;;1.90;;
34471;SDS011;20710;49.976;19.836;2023-07-31T13:39:04;4.30;;;1.70;;
34471;SDS011;20710;49.976;19.836;2023-07-31T13:45:06;3.30;;;1.40;;
34471;SDS011;20710;49.976;19.836;2023-07-31T13:51:08;3.80;;;2.00;;
34471;SDS011;20710;49.976;19.836;2023-07-31T13:57:10;6.30;;;1.70;;
34471;SDS011;20710;49.976;19.836;2023-07-31T14:03:13;3.20;;;1.80;;
34471;SDS011;20710;49.976;19.836;2023-07-31T14:09:29;4.60;;;1.30;;
34471;SDS011;20710;49.976;19.836;2023-07-31T14:15:33;3.70;;;1.40;;
34471;SDS011;20710;49.976;19.836;2023-07-31T14:21:57;3.90;;;1.50;;
34471;SDS011;20710;49.976;19.836;2023-07-31T14:28:07;5.60;;;1.60;;
34471;SDS011;20710;49.976;19.836;2023-07-31T14:34:09;1.90;;;1.20;;
34471;SDS011;20710;49.976;19.836;2023-07-31T14:40:19;2.50;;;1.60;;
34471;SDS011;20710;49.976;19.836;2023-07-31T14:46:21;4.10;;;2.00;;
34471;SDS011;20710;49.976;19.836;2023-07-31T14:52:47;3.60;;;1.50;;
34471;SDS011;20710;49.976;19.836;2023-07-31T14:58:51;4.10;;;2.10;;
34471;SDS011;20710;49.976;19.836;2023-07-31T15:04:53;4.10;;;1.50;;
34471;SDS011;20710;49.976;19.836;2023-07-31T15:10:55;2.90;;;1.40;;
34471;SDS011;20710;49.976;19.836;2023-07-31T15:16:58;3.10;;;1.10;;
34471;SDS011;20710;49.976;19.836;2023-07-31T15:23:23;5.00;;;1.40;;
34471;SDS011;20710;49.976;19.836;2023-07-31T15:29:28;4.60;;;1.50;;
34471;SDS011;20710;49.976;19.836;2023-07-31T15:35:30;4.10;;;1.00;;
34471;SDS011;20710;49.976;19.836;2023-07-31T15:41:32;2.90;;;1.30;;
34471;SDS011;20710;49.976;19.836;2023-07-31T15:47:34;6.80;;;1.90;;
34471;SDS011;20710;49.976;19.836;2023-07-31T15:53:37;2.70;;;1.30;;
34471;SDS011;20710;49.976;19.836;2023-07-31T15:59:50;5.20;;;1.50;;
34471;SDS011;20710;49.976;19.836;2023-07-31T16:05:59;3.80;;;1.50;;
34471;SDS011;20710;49.976;19.836;2023-07-31T16:12:01;2.80;;;1.40;;
34471;SDS011;20710;49.976;19.836;2023-07-31T16:18:03;3.50;;;1.40;;
34471;SDS011;20710;49.976;19.836;2023-07-31T16:24:05;4.70;;;1.40;;
34471;SDS011;20710;49.976;19.836;2023-07-31T16:30:06;4.30;;;1.50;;
34471;SDS011;20710;49.976;19.836;2023-07-31T16:36:08;5.90;;;1.70;;
34471;SDS011;20710;49.976;19.836;2023-07-31T16:42:10;3.00;;;1.60;;
34471;SDS011;20710;49.976;19.836;2023-07-31T16:48:12;9.00;;;2.00;;
34471;SDS011;20710;49.976;19.836;2023-07-31T16:54:13;3.40;;;1.70;;
34471;SDS011;20710;49.976;19.836;2023-07-31T17:00:15;7.30;;;2.50;;
34471;SDS011;20710;49.976;19.836;2023-07-31T17:06:30;4.10;;;1.60;;
34471;SDS011;20710;49.976;19.836;2023-07-31T17:12:54;5.10;;;2.00;;
34471;SDS011;20710;49.976;19.836;2023-07-31T17:18:56;6.60;;;1.50;;
34471;SDS011;20710;49.976;19.836;2023-07-31T17:24:58;3.30;;;1.70;;
34471;SDS011;20710;49.976;19.836;2023-07-31T17:31:13;4.80;;;1.80;;
34471;SDS011;20710;49.976;19.836;2023-07-31T17:37:15;3.30;;;1.20;;
34471;SDS011;20710;49.976;19.836;2023-07-31T17:43:18;3.90;;;1.50;;
34471;SDS011;20710;49.976;19.836;2023-07-31T17:49:35;4.80;;;1.70;;
34471;SDS011;20710;49.976;19.836;2023-07-31T17:55:52;5.00;;;2.00;;
34471;SDS011;20710;49.976;19.836;2023-07-31T18:01:54;3.70;;;1.50;;
34471;SDS011;20710;49.976;19.836;2023-07-31T18:08:15;7.10;;;1.90;;
34471;SDS011;20710;49.976;19.836;2023-07-31T18:14:19;5.00;;;1.60;;
34471;SDS011;20710;49.976;19.836;2023-07-31T18:20:25;2.60;;;1.40;;
34471;SDS011;20710;49.976;19.836;2023-07-31T18:26:29;4.00;;;1.70;;
34471;SDS011;20710;49.976;19.836;2023-07-31T18:32:32;3.80;;;1.60;;
34471;SDS011;20710;49.976;19.836;2023-07-31T18:38:33;6.60;;;1.80;;
34471;SDS011;20710;49.976;19.836;2023-07-31T18:44:58;6.80;;;3.20;;
34471;SDS011;20710;49.976;19.836;2023-07-31T18:51:40;5.80;;;3.00;;
34471;SDS011;20710;49.976;19.836;2023-07-31T18:58:04;7.40;;;3.60;;
34471;SDS011;20710;49.976;19.836;2023-07-31T19:04:07;7.00;;;3.70;;
34471;SDS011;20710;49.976;19.836;2023-07-31T19:10:08;5.60;;;2.90;;
34471;SDS011;20710;49.976;19.836;2023-07-31T19:16:11;11.40;;;4.60;;
34471;SDS011;20710;49.976;19.836;2023-07-31T19:22:13;9.80;;;4.70;;
34471;SDS011;20710;49.976;19.836;2023-07-31T19:28:15;11.90;;;3.80;;
34471;SDS011;20710;49.976;19.836;2023-07-31T19:34:17;8.80;;;3.90;;
34471;SDS011;20710;49.976;19.836;2023-07-31T19:40:39;12.40;;;4.40;;
34471;SDS011;20710;49.976;19.836;2023-07-31T19:46:40;9.80;;;5.20;;
34471;SDS011;20710;49.976;19.836;2023-07-31T19:52:43;9.30;;;5.30;;
34471;SDS011;20710;49.976;19.836;2023-07-31T19:58:45;11.30;;;6.20;;
34471;SDS011;20710;49.976;19.836;2023-07-31T20:05:07;13.30;;;6.10;;
34471;SDS011;20710;49.976;19.836;2023-07-31T20:11:09;10.50;;;4.40;;
34471;SDS011;20710;49.976;19.836;2023-07-31T20:17:12;14.00;;;5.40;;
34471;SDS011;20710;49.976;19.836;2023-07-31T20:23:16;10.90;;;4.60;;
34471;SDS011;20710;49.976;19.836;2023-07-31T20:29:18;8.60;;;4.60;;
34471;SDS011;20710;49.976;19.836;2023-07-31T20:35:20;8.30;;;4.30;;
34471;SDS011;20710;49.976;19.836;2023-07-31T20:41:22;5.80;;;4.10;;
34471;SDS011;20710;49.976;19.836;2023-07-31T20:47:44;12.10;;;4.90;;
34471;SDS011;20710;49.976;19.836;2023-07-31T20:53:50;10.00;;;4.20;;
34471;SDS011;20710;49.976;19.836;2023-07-31T20:59:53;11.40;;;5.10;;
34471;SDS011;20710;49.976;19.836;2023-07-31T21:06:33;16.00;;;6.40;;
34471;SDS011;20710;49.976;19.836;2023-07-31T21:12:35;13.70;;;5.80;;
34471;SDS011;20710;49.976;19.836;2023-07-31T21:19:22;13.30;;;5.80;;
34471;SDS011;20710;49.976;19.836;2023-07-31T21:25:24;11.70;;;4.20;;
34471;SDS011;20710;49.976;19.836;2023-07-31T21:31:46;9.80;;;4.20;;
34471;SDS011;20710;49.976;19.836;2023-07-31T21:37:48;9.00;;;4.40;;
34471;SDS011;20710;49.976;19.836;2023-07-31T21:43:59;6.70;;;4.10;;
34471;SDS011;20710;49.976;19.836;2023-07-31T21:50:18;7.90;;;3.80;;
34471;SDS011;20710;49.976;19.836;2023-07-31T21:56:22;14.10;;;5.20;;
34471;SDS011;20710;49.976;19.836;2023-07-31T22:02:24;8.10;;;4.90;;
34471;SDS011;20710;49.976;19.836;2023-07-31T22:08:46;8.80;;;4.50;;
34471;SDS011;20710;49.976;19.836;2023-07-31T22:14:48;7.20;;;4.20;;
34471;SDS011;20710;49.976;19.836;2023-07-31T22:20:51;9.30;;;4.90;;
34471;SDS011;20710;49.976;19.836;2023-07-31T22:27:17;6.80;;;4.90;;
34471;SDS011;20710;49.976;19.836;2023-07-31T22:33:20;13.60;;;5.20;;
34471;SDS011;20710;49.976;19.836;2023-07-31T22:40:04;10.40;;;5.00;;
34471;SDS011;20710;49.976;19.836;2023-07-31T22:46:07;11.50;;;5.50;;
34471;SDS011;20710;49.976;19.836;2023-07-31T22:52:08;13.60;;;5.10;;
34471;SDS011;20710;49.976;19.836;2023-07-31T22:58:12;10.70;;;5.10;;
34471;SDS011;20710;49.976;19.836;2023-07-31T23:04:38;15.60;;;5.60;;
34471;SDS011;20710;49.976;19.836;2023-07-31T23:10:46;11.60;;;6.00;;
34471;SDS011;20710;49.976;19.836;2023-07-31T23:17:50;16.10;;;6.40;;
34471;SDS011;20710;49.976;19.836;2023-07-31T23:23:52;9.20;;;6.00;;
34471;SDS011;20710;49.976;19.836;2023-07-31T23:29:54;12.00;;;6.50;;
34471;SDS011;20710;49.976;19.836;2023-07-31T23:35:57;9.90;;;6.50;;
34471;SDS011;20710;49.976;19.836;2023-07-31T23:41:59;11.40;;;5.70;;
34471;SDS011;20710;49.976;19.836;2023-07-31T23:48:01;11.40;;;6.30;;
34471;SDS011;20710;49.976;19.836;2023-07-31T23:54:03;12.20;;;6.40;;
